Time;durP1;ratioP1;P1;durP2;ratioP2;P2;SDS_P1;SDS_P2;PMS_P1;PMS_P2;Temp;Humidity;BMP_temperature;BMP_pressure;BME280_temperature;BME280_humidity;BME280_pressure;Samples;Min_cycle;Max_cycle;Signal;HPM_P1;HPM_P2
2022/07/22 00:01:31;;;;;;;8.28;4.95;;;;;;;16.02;100.00;99781.27;1740320;82;21570;-70
2022/07/22 00:03:57;;;;;;;8.05;4.30;;;;;;;15.98;100.00;99785.91;1742037;82;21101;-72
2022/07/22 00:06:24;;;;;;;10.53;5.25;;;;;;;16.00;100.00;99789.80;1742159;82;21122;-70
2022/07/22 00:08:51;;;;;;;7.05;4.85;;;;;;;15.95;100.00;99790.10;1742320;82;21075;-71
2022/07/22 00:11:18;;;;;;;10.00;4.60;;;;;;;15.93;100.00;99792.84;1742145;82;21070;-71
2022/07/22 00:13:45;;;;;;;7.35;4.90;;;;;;;15.92;100.00;99791.64;1742750;82;21050;-69
2022/07/22 00:16:14;;;;;;;6.78;4.90;;;;;;;15.91;100.00;99792.57;1742708;82;21110;-70
2022/07/22 00:18:41;;;;;;;8.48;4.70;;;;;;;15.92;100.00;99794.30;1742659;82;21164;-71
2022/07/22 00:21:08;;;;;;;8.28;4.42;;;;;;;15.94;100.00;99796.34;1742597;82;21063;-70
2022/07/22 00:23:34;;;;;;;9.30;4.85;;;;;;;15.94;100.00;99798.55;1743173;82;21035;-69
2022/07/22 00:26:01;;;;;;;7.35;4.50;;;;;;;15.92;100.00;99790.31;1742630;82;21062;-70
2022/07/22 00:28:28;;;;;;;7.62;5.10;;;;;;;15.94;100.00;99795.02;1742651;82;21046;-73
2022/07/22 00:30:55;;;;;;;7.15;4.83;;;;;;;15.93;100.00;99796.83;1742884;82;21326;-71
2022/07/22 00:33:22;;;;;;;8.38;5.30;;;;;;;15.91;100.00;99797.88;1742591;82;21070;-69
2022/07/22 00:35:49;;;;;;;7.70;4.90;;;;;;;15.90;100.00;99801.50;1742864;82;21606;-70
2022/07/22 00:38:16;;;;;;;7.42;4.78;;;;;;;15.91;100.00;99795.23;1742895;82;22186;-70
2022/07/22 00:40:43;;;;;;;10.35;4.95;;;;;;;15.82;100.00;99806.44;1742724;82;21067;-70
2022/07/22 00:43:10;;;;;;;10.43;4.90;;;;;;;15.80;100.00;99796.39;1742793;82;21094;-70
2022/07/22 00:45:36;;;;;;;7.53;5.20;;;;;;;15.77;100.00;99799.25;1742771;82;21464;-71
2022/07/22 00:48:03;;;;;;;13.38;5.50;;;;;;;15.77;100.00;99797.92;1742726;82;21054;-69
2022/07/22 00:50:30;;;;;;;6.50;4.55;;;;;;;15.75;100.00;99797.16;1721961;82;21539;-71
2022/07/22 00:52:57;;;;;;;10.55;5.17;;;;;;;15.76;100.00;99802.84;1742809;82;21560;-69
2022/07/22 00:55:25;;;;;;;9.80;5.15;;;;;;;15.74;100.00;99804.28;1742959;82;21250;-69
2022/07/22 00:57:51;;;;;;;7.55;4.65;;;;;;;15.73;100.00;99802.11;1743010;82;21081;-70
2022/07/22 01:00:20;;;;;;;7.42;4.92;;;;;;;15.71;100.00;99797.37;1742728;82;21057;-69
2022/07/22 01:02:46;;;;;;;10.10;4.95;;;;;;;15.70;100.00;99795.65;1742573;80;21056;-72
2022/07/22 01:05:14;;;;;;;6.37;4.53;;;;;;;15.68;100.00;99800.65;1742991;82;21565;-70
2022/07/22 01:07:42;;;;;;;6.53;4.75;;;;;;;15.65;100.00;99800.37;1742836;82;21240;-70
2022/07/22 01:10:09;;;;;;;7.83;4.60;;;;;;;15.64;100.00;99800.45;1742737;82;21045;-70
2022/07/22 01:12:37;;;;;;;8.05;5.17;;;;;;;15.61;100.00;99798.85;1742662;82;21033;-70
2022/07/22 01:15:06;;;;;;;10.18;5.15;;;;;;;15.61;100.00;99800.18;1742755;82;21001;-70
2022/07/22 01:17:34;;;;;;;13.55;5.67;;;;;;;15.59;100.00;99798.09;1742959;82;22186;-72
2022/07/22 01:20:07;;;;;;;8.40;5.00;;;;;;;15.57;100.00;99802.64;1743048;82;21191;-71
2022/07/22 01:22:33;;;;;;;8.23;5.00;;;;;;;15.56;100.00;99803.61;1742731;82;21294;-71
2022/07/22 01:25:00;;;;;;;9.28;5.28;;;;;;;15.55;100.00;99801.04;1742853;82;21149;-71
2022/07/22 01:27:29;;;;;;;9.45;4.97;;;;;;;15.53;100.00;99798.50;1721921;82;21029;-70
2022/07/22 01:29:57;;;;;;;7.08;4.45;;;;;;;15.53;100.00;99797.17;1742629;82;21275;-69
2022/07/22 01:32:24;;;;;;;11.63;4.75;;;;;;;15.51;100.00;99797.73;1742592;82;22028;-71
2022/07/22 01:34:51;;;;;;;9.50;5.33;;;;;;;15.51;100.00;99797.73;1742814;82;21041;-70
2022/07/22 01:37:19;;;;;;;7.37;4.70;;;;;;;15.51;100.00;99797.27;1742634;82;21081;-69
2022/07/22 01:39:46;;;;;;;8.20;4.83;;;;;;;15.49;100.00;99800.48;1742873;82;21022;-70
2022/07/22 01:42:13;;;;;;;7.90;4.33;;;;;;;15.49;100.00;99794.33;1742648;82;21049;-71
2022/07/22 01:44:40;;;;;;;15.38;5.40;;;;;;;15.47;100.00;99797.06;1742614;82;21203;-70
2022/07/22 01:47:08;;;;;;;8.88;5.15;;;;;;;15.47;100.00;99800.20;1742618;82;21033;-70
2022/07/22 01:49:36;;;;;;;6.20;4.47;;;;;;;15.45;100.00;99801.61;1742758;79;20994;-70
2022/07/22 01:52:05;;;;;;;8.05;5.20;;;;;;;15.43;100.00;99803.50;1742673;82;21081;-69
2022/07/22 01:54:32;;;;;;;8.53;4.50;;;;;;;15.42;100.00;99810.26;1736795;82;21542;-70
2022/07/22 01:56:59;;;;;;;6.40;4.65;;;;;;;15.39;100.00;99806.45;1732858;82;21299;-69
2022/07/22 01:59:26;;;;;;;10.38;5.22;;;;;;;15.37;100.00;99805.69;1732930;82;21057;-71
2022/07/22 02:01:54;;;;;;;7.25;5.00;;;;;;;15.35;100.00;99807.12;1732851;82;20999;-70
2022/07/22 02:04:21;;;;;;;9.13;5.30;;;;;;;15.34;100.00;99804.56;1733888;82;21045;-69
2022/07/22 02:06:49;;;;;;;8.98;5.00;;;;;;;15.31;100.00;99806.94;1707467;82;21576;-70
2022/07/22 02:09:16;;;;;;;7.92;4.85;;;;;;;15.30;100.00;99804.76;1732903;82;22190;-70
2022/07/22 02:11:47;;;;;;;8.38;5.40;;;;;;;15.29;100.00;99813.65;1733062;82;21053;-72
2022/07/22 02:14:15;;;;;;;7.97;5.00;;;;;;;15.27;100.00;99816.87;1733094;82;21089;-71
2022/07/22 02:16:42;;;;;;;8.80;5.62;;;;;;;15.25;100.00;99821.44;1732997;82;21494;-70
2022/07/22 02:19:10;;;;;;;9.88;4.95;;;;;;;15.25;100.00;99821.89;1733332;82;21066;-69
2022/07/22 02:21:38;;;;;;;6.33;4.47;;;;;;;15.23;100.00;99822.45;1732998;82;21113;-70
2022/07/22 02:24:05;;;;;;;11.93;5.17;;;;;;;15.23;100.00;99824.66;1732966;82;21573;-71
2022/07/22 02:26:33;;;;;;;9.60;4.97;;;;;;;15.24;100.00;99824.17;1733048;82;20999;-71
2022/07/22 02:28:59;;;;;;;6.58;5.15;;;;;;;15.24;100.00;99826.34;1733262;82;21043;-70
2022/07/22 02:31:26;;;;;;;13.35;5.70;;;;;;;15.26;100.00;99820.96;1733181;82;21057;-70
2022/07/22 02:33:53;;;;;;;7.95;4.87;;;;;;;15.27;100.00;99823.50;1733023;82;21134;-69
2022/07/22 02:36:20;;;;;;;9.25;5.17;;;;;;;15.27;100.00;99822.66;1732912;82;21054;-69
2022/07/22 02:38:49;;;;;;;8.38;5.08;;;;;;;15.29;100.00;99830.89;1732733;82;21049;-70
2022/07/22 02:41:16;;;;;;;6.40;4.53;;;;;;;15.30;100.00;99825.14;1733116;82;21073;-71
2022/07/22 02:43:44;;;;;;;8.75;4.85;;;;;;;15.32;100.00;99827.20;1732608;82;21523;-69
2022/07/22 02:46:12;;;;;;;6.53;4.28;;;;;;;15.35;100.00;99827.02;1732909;82;21244;-70
2022/07/22 02:48:39;;;;;;;8.63;5.37;;;;;;;15.38;100.00;99827.31;1732835;82;21128;-71
2022/07/22 02:51:08;;;;;;;13.08;5.60;;;;;;;15.41;100.00;99823.13;1733141;82;21093;-70
2022/07/22 02:53:35;;;;;;;7.12;4.92;;;;;;;15.46;100.00;99829.88;1732976;82;21018;-70
2022/07/22 02:56:01;;;;;;;7.15;5.33;;;;;;;15.50;100.00;99829.19;1733152;82;21030;-70
2022/07/22 02:58:29;;;;;;;10.43;4.90;;;;;;;15.53;100.00;99823.23;1732783;82;21214;-71
2022/07/22 03:00:56;;;;;;;8.58;5.00;;;;;;;15.58;100.00;99825.59;1733089;82;21053;-69
2022/07/22 03:03:23;;;;;;;8.03;5.20;;;;;;;15.65;100.00;99828.24;1735597;82;21050;-70
2022/07/22 03:05:51;;;;;;;6.90;4.95;;;;;;;15.71;100.00;99834.98;1718060;82;21022;-70
2022/07/22 03:08:23;;;;;;;8.33;5.22;;;;;;;15.79;100.00;99842.48;1734323;82;21120;-71
2022/07/22 03:10:50;;;;;;;9.53;5.10;;;;;;;15.83;100.00;99838.21;1741711;82;21253;-71
2022/07/22 03:13:17;;;;;;;9.78;5.47;;;;;;;15.90;100.00;99845.31;1740363;81;21121;-71
2022/07/22 03:15:44;;;;;;;8.15;4.95;;;;;;;15.98;100.00;99841.68;1739209;82;21050;-70
2022/07/22 03:18:11;;;;;;;10.05;5.33;;;;;;;16.04;100.00;99843.95;1736449;82;21550;-68
2022/07/22 03:20:39;;;;;;;6.72;5.25;;;;;;;16.06;100.00;99842.05;1741774;82;21058;-70
2022/07/22 03:23:05;;;;;;;8.15;5.28;;;;;;;16.08;100.00;99849.45;1729161;82;21389;-72
2022/07/22 03:25:34;;;;;;;8.13;4.80;;;;;;;16.18;100.00;99846.20;1740880;82;21537;-71
2022/07/22 03:28:01;;;;;;;9.60;5.00;;;;;;;16.28;100.00;99844.64;1740840;82;21010;-71
2022/07/22 03:30:27;;;;;;;12.43;4.78;;;;;;;16.40;100.00;99843.83;1740989;82;21102;-71
2022/07/22 03:32:56;;;;;;;8.98;4.92;;;;;;;16.53;100.00;99844.72;1742484;82;21018;-71
2022/07/22 03:35:23;;;;;;;10.43;5.05;;;;;;;16.63;100.00;99853.42;1742980;82;21617;-71
2022/07/22 03:37:49;;;;;;;10.10;5.28;;;;;;;16.76;100.00;99853.83;1742726;82;21062;-71
2022/07/22 03:40:17;;;;;;;12.10;4.97;;;;;;;16.86;100.00;99848.77;1721414;82;21136;-71
2022/07/22 03:42:43;;;;;;;10.32;5.47;;;;;;;17.08;100.00;99858.81;1721513;82;21104;-71
2022/07/22 03:45:10;;;;;;;10.35;5.00;;;;;;;17.35;100.00;99858.73;1742730;82;21049;-71
2022/07/22 03:47:38;;;;;;;14.43;4.90;;;;;;;17.60;100.00;99851.69;1742615;79;21887;-71
2022/07/22 03:50:07;;;;;;;7.53;4.47;;;;;;;17.71;100.00;99855.75;1742619;82;21579;-70
2022/07/22 03:52:35;;;;;;;9.15;4.90;;;;;;;17.91;100.00;99853.52;1742620;82;21052;-70
2022/07/22 03:55:05;;;;;;;7.00;4.67;;;;;;;18.26;100.00;99846.11;1734464;82;21120;-71
2022/07/22 03:57:32;;;;;;;7.62;4.67;;;;;;;18.79;100.00;99842.13;1733066;82;21014;-70
2022/07/22 04:00:01;;;;;;;11.22;5.05;;;;;;;19.26;100.00;99848.80;1732511;82;21070;-70
2022/07/22 04:02:30;;;;;;;9.43;5.10;;;;;;;19.74;100.00;99845.95;1732799;82;20993;-71
2022/07/22 04:04:57;;;;;;;8.43;5.05;;;;;;;20.15;100.00;99845.74;1715406;82;21080;-70
2022/07/22 04:07:24;;;;;;;6.53;4.75;;;;;;;20.33;100.00;99841.56;1740942;82;21049;-71
2022/07/22 04:09:51;;;;;;;8.25;4.60;;;;;;;20.47;100.00;99843.59;1741026;82;21101;-71
2022/07/22 04:12:17;;;;;;;5.53;4.22;;;;;;;20.59;100.00;99845.30;1740937;82;21174;-70
2022/07/22 04:14:46;;;;;;;7.47;4.72;;;;;;;20.81;100.00;99844.33;1737721;82;21040;-70
2022/07/22 04:18:00;;;;;;;7.45;4.58;;;;;;;21.20;100.00;99838.39;1814368;79;22599;-71
2022/07/22 04:20:28;;;;;;;6.12;3.95;;;;;;;21.41;98.79;99844.59;1787500;80;21522;-70
2022/07/22 04:23:13;;;;;;;8.58;4.22;;;;;;;21.66;96.59;99851.34;1787506;80;21152;-70
2022/07/22 04:25:40;;;;;;;11.30;4.83;;;;;;;21.90;95.15;99850.15;1787551;80;21016;-72
2022/07/22 04:28:07;;;;;;;6.22;4.33;;;;;;;22.23;93.41;99853.53;1787425;80;21475;-72
2022/07/22 04:30:33;;;;;;;7.90;4.33;;;;;;;22.52;91.43;99853.55;1787333;80;21072;-71
2022/07/22 04:33:00;;;;;;;7.53;4.20;;;;;;;22.68;89.75;99857.02;1787709;80;21041;-72
2022/07/22 04:35:27;;;;;;;6.65;4.55;;;;;;;22.76;87.74;99855.33;1787755;80;21416;-73
2022/07/22 04:38:04;;;;;;;6.25;4.40;;;;;;;22.79;88.48;99856.37;1785942;80;21584;-71
2022/07/22 04:40:31;;;;;;;5.20;3.90;;;;;;;22.92;87.23;99861.97;1787287;80;21092;-70
2022/07/22 04:42:59;;;;;;;8.63;4.50;;;;;;;22.97;88.08;99870.44;1787362;80;21065;-71
2022/07/22 04:45:25;;;;;;;8.08;3.98;;;;;;;22.94;86.63;99868.89;1787468;80;21580;-71
2022/07/22 04:47:52;;;;;;;7.97;4.40;;;;;;;22.99;86.42;99872.52;1787458;80;21232;-72
2022/07/22 04:50:19;;;;;;;7.97;4.60;;;;;;;23.17;84.50;99868.11;1787398;80;21076;-71
2022/07/22 04:52:45;;;;;;;7.37;4.70;;;;;;;23.22;82.33;99870.37;1787597;80;21602;-71
2022/07/22 04:55:11;;;;;;;5.05;3.85;;;;;;;23.19;83.40;99876.88;1787375;80;21040;-72
2022/07/22 04:57:38;;;;;;;7.15;4.05;;;;;;;23.33;82.76;99878.27;1787299;80;20998;-72
2022/07/22 05:00:07;;;;;;;8.60;4.53;;;;;;;23.58;81.73;99883.50;1787649;80;21335;-71
2022/07/22 05:02:36;;;;;;;;;;;;;;;23.66;80.18;99887.63;1788534;80;21060;-71
2022/07/22 05:05:02;;;;;;;6.35;3.67;;;;;;;23.64;80.53;99876.17;1787544;80;20223;-70
2022/07/22 05:07:30;;;;;;;4.22;3.50;;;;;;;23.76;81.39;99882.24;1787572;80;21526;-71
2022/07/22 05:09:59;;;;;;;8.43;3.62;;;;;;;24.13;81.08;99875.13;1787169;80;21080;-70
2022/07/22 05:12:27;;;;;;;12.47;4.00;;;;;;;24.56;78.41;99880.35;1787326;80;21102;-71
2022/07/22 05:14:54;;;;;;;5.65;3.60;;;;;;;24.73;76.26;99878.14;1787081;80;21092;-71
2022/07/22 05:17:21;;;;;;;7.00;3.60;;;;;;;24.77;75.77;99879.53;1778644;80;21494;-71
2022/07/22 05:19:49;;;;;;;5.87;3.52;;;;;;;24.91;74.64;99879.01;1772274;80;21652;-72
2022/07/22 05:22:16;;;;;;;5.78;3.42;;;;;;;25.04;73.90;99872.36;1773783;80;21608;-71
2022/07/22 05:24:43;;;;;;;5.95;3.92;;;;;;;25.21;73.36;99870.66;1751746;80;21164;-71
2022/07/22 05:27:10;;;;;;;7.92;3.50;;;;;;;25.45;72.58;99872.69;1773710;80;21655;-71
2022/07/22 05:29:36;;;;;;;6.15;3.40;;;;;;;25.59;72.11;99878.83;1773343;80;21652;-71
2022/07/22 05:32:05;;;;;;;4.90;3.40;;;;;;;25.55;71.89;99876.11;1773414;80;21522;-71
2022/07/22 05:34:31;;;;;;;6.53;3.50;;;;;;;25.64;71.60;99878.35;1773299;80;21096;-71
2022/07/22 05:36:57;;;;;;;7.30;3.30;;;;;;;25.73;67.38;99875.53;1773119;80;21224;-71
2022/07/22 05:39:24;;;;;;;3.62;3.10;;;;;;;25.79;66.40;99878.58;1773120;80;21018;-72
2022/07/22 05:41:51;;;;;;;8.38;3.40;;;;;;;25.94;66.08;99881.05;1773261;80;21014;-71
2022/07/22 05:44:19;;;;;;;6.85;3.42;;;;;;;26.11;64.08;99881.48;1773253;80;21065;-72
2022/07/22 05:46:46;;;;;;;8.33;3.92;;;;;;;25.97;63.50;99875.84;1773451;80;21093;-70
2022/07/22 05:49:13;;;;;;;5.60;3.33;;;;;;;25.74;63.25;99879.94;1773596;80;21396;-71
2022/07/22 05:51:46;;;;;;;6.17;3.62;;;;;;;25.61;64.62;99880.03;1770585;80;21061;-72
2022/07/22 05:54:09;;;;;;;5.97;3.45;;;;;;;25.58;65.47;99877.13;1758209;80;21655;-71
2022/07/22 05:56:36;;;;;;;7.25;3.80;;;;;;;25.62;64.30;99869.06;1742560;82;21447;-72
2022/07/22 05:59:03;;;;;;;5.35;3.50;;;;;;;25.66;64.04;99871.79;1742625;82;21152;-71
2022/07/22 06:01:31;;;;;;;6.10;3.02;;;;;;;25.89;63.36;99871.27;1742573;82;21684;-71
2022/07/22 06:03:58;;;;;;;6.47;3.20;;;;;;;26.06;62.51;99874.34;1742389;82;21617;-71
2022/07/22 06:06:25;;;;;;;5.65;2.83;;;;;;;26.33;62.57;99871.07;1742563;82;21093;-71
2022/07/22 06:08:52;;;;;;;13.75;3.05;;;;;;;26.55;60.16;99861.03;1742742;82;21652;-72
2022/07/22 06:11:18;;;;;;;3.77;2.92;;;;;;;26.69;59.16;99866.79;1743149;81;21042;-71
2022/07/22 06:13:48;;;;;;;3.80;2.83;;;;;;;26.77;59.06;99869.48;1742695;82;21018;-73
2022/07/22 06:16:15;;;;;;;4.70;2.80;;;;;;;26.88;58.27;99878.61;1742629;82;21629;-74
2022/07/22 06:18:42;;;;;;;5.35;2.70;;;;;;;26.94;57.81;99873.89;1742634;82;21541;-71
2022/07/22 06:21:12;;;;;;;4.42;2.80;;;;;;;26.91;58.02;99885.02;1742427;82;21509;-71
2022/07/22 06:23:39;;;;;;;5.35;3.05;;;;;;;26.98;57.53;99881.97;1742789;82;21105;-72
2022/07/22 06:26:06;;;;;;;4.95;2.90;;;;;;;27.05;57.12;99879.95;1742998;82;21799;-71
2022/07/22 06:28:34;;;;;;;10.03;3.25;;;;;;;27.04;57.28;99881.81;1742378;82;21517;-72
2022/07/22 06:31:01;;;;;;;12.35;3.80;;;;;;;27.22;56.35;99887.08;1742546;82;21014;-72
2022/07/22 06:33:28;;;;;;;5.08;2.83;;;;;;;27.21;56.21;99881.31;1742610;82;21026;-73
2022/07/22 06:35:56;;;;;;;3.95;3.10;;;;;;;27.22;56.12;99883.51;1721547;82;21108;-72
2022/07/22 06:38:23;;;;;;;9.83;2.72;;;;;;;27.25;55.91;99877.78;1742801;82;21070;-72
2022/07/22 06:41:04;;;;;;;4.78;2.72;;;;;;;27.32;55.83;99876.91;1697191;82;21069;-71
2022/07/22 06:43:32;;;;;;;3.02;2.62;;;;;;;27.43;56.16;99880.30;1740401;82;21038;-71
2022/07/22 06:46:01;;;;;;;6.62;3.25;;;;;;;27.55;55.09;99877.55;1735974;82;21062;-71
2022/07/22 06:48:31;;;;;;;8.73;3.05;;;;;;;27.51;54.26;99877.55;1741863;82;20999;-72
2022/07/22 06:50:58;;;;;;;6.45;2.90;;;;;;;27.61;53.88;99875.52;1720754;82;22159;-71
2022/07/22 06:53:24;;;;;;;5.67;2.80;;;;;;;27.87;53.15;99877.16;1750474;79;21021;-72
2022/07/22 06:55:51;;;;;;;6.20;2.65;;;;;;;28.20;51.19;99880.54;1794647;80;21040;-72
2022/07/22 06:58:20;;;;;;;5.80;2.87;;;;;;;28.42;49.68;99874.33;1794632;79;21546;-73
2022/07/22 07:00:48;;;;;;;5.50;2.65;;;;;;;28.45;48.26;99875.31;1794544;80;21082;-71
2022/07/22 07:03:22;;;;;;;8.25;2.60;;;;;;;28.47;48.35;99867.57;1794715;79;21809;-73
2022/07/22 07:05:49;;;;;;;4.90;2.37;;;;;;;28.60;48.33;99876.79;1723842;83;21089;-71
2022/07/22 07:08:18;;;;;;;6.40;2.40;;;;;;;28.66;47.86;99871.98;1723986;82;21297;-72
2022/07/22 07:10:45;;;;;;;7.78;2.80;;;;;;;28.81;46.03;99870.70;1705385;83;21107;-73
2022/07/22 07:13:15;;;;;;;4.10;2.40;;;;;;;29.17;46.60;99866.52;1794679;80;21244;-72
2022/07/22 07:15:45;;;;;;;5.30;2.47;;;;;;;29.17;46.60;99866.52;1724104;83;21130;-71
2022/07/22 07:18:11;;;;;;;3.08;2.22;;;;;;;29.41;45.65;99869.00;1727297;83;21078;-71
2022/07/22 07:20:39;;;;;;;7.53;2.25;;;;;;;29.64;45.00;99870.80;1729506;83;21623;-71
2022/07/22 07:23:07;;;;;;;5.60;1.77;;;;;;;29.83;43.68;99867.53;1729554;83;21539;-71
2022/07/22 07:25:36;;;;;;;4.62;2.15;;;;;;;29.99;42.09;99864.30;1729968;83;21047;-72
2022/07/22 07:28:03;;;;;;;5.33;2.12;;;;;;;29.97;41.52;99873.14;1729525;83;22248;-72
2022/07/22 07:30:35;;;;;;;3.22;1.80;;;;;;;30.03;41.68;99873.75;1718866;83;21061;-71
2022/07/22 07:33:02;;;;;;;6.58;1.77;;;;;;;30.30;40.84;99873.59;1800619;79;21569;-72
2022/07/22 07:35:29;;;;;;;3.70;1.67;;;;;;;30.25;39.01;99872.78;1729631;83;21531;-72
2022/07/22 07:37:58;;;;;;;3.85;1.50;;;;;;;30.02;39.68;99873.41;1800181;79;21064;-71
2022/07/22 07:40:26;;;;;;;4.37;1.80;;;;;;;29.86;39.32;99873.97;1800419;79;21022;-71
2022/07/22 07:42:53;;;;;;;2.17;1.50;;;;;;;29.65;39.66;99877.89;1800033;79;21038;-73
2022/07/22 07:45:20;;;;;;;2.77;1.98;;;;;;;29.44;40.37;99878.64;1729625;83;21066;-72
2022/07/22 07:47:47;;;;;;;3.45;1.60;;;;;;;29.55;40.81;99877.34;1729570;82;21011;-72
2022/07/22 07:50:14;;;;;;;3.85;1.60;;;;;;;29.73;39.79;99880.56;1729477;83;22166;-71
2022/07/22 07:52:44;;;;;;;2.98;1.60;;;;;;;29.89;39.83;99879.01;1716193;82;21286;-72
2022/07/22 07:55:12;;;;;;;3.65;1.70;;;;;;;29.82;39.55;99880.80;1794282;79;21065;-72
2022/07/22 07:57:39;;;;;;;2.12;1.70;;;;;;;29.72;39.65;99889.72;1771004;79;21128;-72
2022/07/22 08:00:10;;;;;;;4.95;2.02;;;;;;;29.62;40.11;99894.56;1800052;79;21038;-73
2022/07/22 08:02:39;;;;;;;4.35;1.57;;;;;;;29.62;39.74;99885.06;1729073;83;21210;-72
2022/07/22 08:05:08;;;;;;;6.55;1.82;;;;;;;29.49;40.15;99887.92;1702692;83;21185;-73
2022/07/22 08:07:35;;;;;;;3.02;1.52;;;;;;;29.30;39.65;99896.58;1729200;83;21042;-72
2022/07/22 08:10:05;;;;;;;4.05;1.60;;;;;;;29.20;39.33;99896.00;1800007;79;21030;-73
2022/07/22 08:12:47;;;;;;;2.25;1.47;;;;;;;29.27;40.21;99892.36;1705697;83;21050;-73
2022/07/22 08:15:29;;;;;;;2.62;1.60;;;;;;;29.55;39.61;99885.48;1711909;83;21019;-72
2022/07/22 08:17:55;;;;;;;5.67;1.92;;;;;;;29.90;38.98;99884.75;1729202;83;21096;-72
2022/07/22 08:20:24;;;;;;;4.37;1.70;;;;;;;30.21;38.76;99883.70;1800008;79;21003;-72
2022/07/22 08:22:52;;;;;;;5.15;1.50;;;;;;;30.17;38.53;99890.53;1729230;83;21093;-72
2022/07/22 08:25:19;;;;;;;3.35;1.95;;;;;;;29.82;38.69;99900.31;1729252;83;21003;-72
2022/07/22 08:27:46;;;;;;;3.52;2.00;;;;;;;29.44;39.63;99888.97;1729362;83;21101;-72
2022/07/22 08:30:13;;;;;;;3.92;1.82;;;;;;;29.28;39.91;99895.39;1800083;79;21168;-72
2022/07/22 08:32:40;;;;;;;6.53;1.70;;;;;;;29.25;40.23;99882.73;1800086;79;21038;-72
2022/07/22 08:35:08;;;;;;;3.47;2.00;;;;;;;29.39;40.33;99879.19;1800050;79;21514;-72
2022/07/22 08:37:37;;;;;;;6.80;2.50;;;;;;;29.55;40.60;99874.63;1800403;79;21287;-72
2022/07/22 08:40:06;;;;;;;6.08;1.90;;;;;;;29.65;40.57;99876.54;1800062;79;21053;-72
2022/07/22 08:42:41;;;;;;;5.17;2.20;;;;;;;29.66;39.85;99893.17;1800470;79;21078;-71
2022/07/22 08:45:08;;;;;;;4.50;1.95;;;;;;;29.74;40.24;99887.66;1800217;79;21050;-70
2022/07/22 08:47:35;;;;;;;2.52;1.72;;;;;;;29.62;39.63;99880.47;1800662;79;21069;-72
2022/07/22 08:50:19;;;;;;;5.08;1.67;;;;;;;29.36;40.31;99895.84;1727552;83;21030;-72
2022/07/22 08:52:59;;;;;;;5.72;2.00;;;;;;;29.16;40.37;99897.39;1729069;83;21042;-72
2022/07/22 08:55:26;;;;;;;7.50;2.10;;;;;;;28.94;40.66;99897.21;1774581;79;21115;-72
2022/07/22 08:57:53;;;;;;;5.35;1.95;;;;;;;28.78;40.81;99897.31;1773816;80;21117;-72
2022/07/22 09:00:21;;;;;;;3.15;1.80;;;;;;;28.73;40.41;99903.78;1773784;80;21087;-72
2022/07/22 09:02:49;;;;;;;2.77;1.80;;;;;;;28.62;40.41;99901.84;1773955;80;21048;-70
2022/07/22 09:05:17;;;;;;;2.67;1.70;;;;;;;28.72;40.98;99900.76;1773896;80;21503;-72
2022/07/22 09:07:46;;;;;;;2.95;1.95;;;;;;;28.95;40.98;99897.52;1773781;80;22195;-72
2022/07/22 09:10:18;;;;;;;2.98;1.80;;;;;;;29.20;40.45;99891.94;1772585;80;21047;-72
2022/07/22 09:12:59;;;;;;;2.55;1.80;;;;;;;29.21;40.23;99895.80;1751854;81;21205;-72
2022/07/22 09:15:55;;;;;;;3.33;1.72;;;;;;;29.02;40.22;99890.34;1774210;80;21043;-72
2022/07/22 09:18:26;;;;;;;4.08;2.02;;;;;;;28.68;40.93;99898.07;1767488;80;21535;-72
2022/07/22 09:21:13;;;;;;;3.80;2.05;;;;;;;28.59;41.37;99905.41;1766151;80;21169;-73
2022/07/22 09:23:45;;;;;;;2.98;1.90;;;;;;;28.74;40.01;99894.66;1765692;80;21004;-73
2022/07/22 09:26:38;;;;;;;6.70;1.70;;;;;;;29.06;39.86;99894.39;1768360;81;21670;-73
2022/07/22 09:29:07;;;;;;;5.85;1.80;;;;;;;29.48;40.02;99887.58;1764317;81;21107;-71
2022/07/22 09:31:37;;;;;;;3.02;1.50;;;;;;;29.70;39.74;99886.34;1768415;81;21039;-72
2022/07/22 09:34:31;;;;;;;5.05;2.08;;;;;;;29.79;39.42;99896.08;1766051;80;21263;-73
2022/07/22 09:37:00;;;;;;;4.70;2.02;;;;;;;29.89;39.70;99893.94;1767913;80;21126;-73
2022/07/22 09:39:33;;;;;;;2.20;1.77;;;;;;;30.11;39.29;99910.29;1768323;81;21102;-72
2022/07/22 09:42:05;;;;;;;6.05;1.87;;;;;;;30.23;38.72;99894.34;1768280;81;21162;-71
2022/07/22 09:44:34;;;;;;;4.90;1.82;;;;;;;30.33;38.61;99899.53;1768704;81;21122;-72
2022/07/22 09:47:02;;;;;;;4.80;1.65;;;;;;;30.49;36.76;99907.45;1766689;80;21091;-71
2022/07/22 09:49:50;;;;;;;3.15;1.50;;;;;;;30.48;36.20;99904.39;1697328;84;21070;-72
2022/07/22 09:52:28;;;;;;;6.87;1.70;;;;;;;30.53;36.61;99900.61;1696411;84;21588;-72
2022/07/22 09:55:07;;;;;;;2.47;1.40;;;;;;;30.70;36.94;99895.23;1768563;81;21122;-72
2022/07/22 09:57:34;;;;;;;5.10;1.67;;;;;;;31.29;34.96;99900.06;1768300;81;21166;-73
2022/07/22 10:00:03;;;;;;;5.17;1.40;;;;;;;31.29;34.96;99900.06;1768531;81;21816;-72
2022/07/22 10:02:49;;;;;;;5.47;1.47;;;;;;;31.39;33.41;99907.38;1768211;81;21095;-72
2022/07/22 10:05:20;;;;;;;2.77;1.47;;;;;;;31.23;33.31;99899.52;1768785;81;21633;-72
2022/07/22 10:07:48;;;;;;;5.10;1.40;;;;;;;31.24;34.17;99906.09;1768623;81;21560;-73
2022/07/22 10:10:18;;;;;;;2.50;1.30;;;;;;;31.59;33.55;99902.61;1768473;81;21106;-72
2022/07/22 10:12:48;;;;;;;1.50;1.20;;;;;;;32.00;33.39;99902.67;1768649;81;21230;-72
2022/07/22 10:15:16;;;;;;;1.40;1.30;;;;;;;32.19;32.67;99905.19;1768150;81;21272;-72
2022/07/22 10:17:54;;;;;;;3.87;1.37;;;;;;;32.36;32.27;99901.05;1768612;80;21130;-71
2022/07/22 10:20:24;;;;;;;5.12;1.45;;;;;;;32.55;32.27;99899.98;1773822;80;21569;-72
2022/07/22 10:23:01;;;;;;;1.62;1.10;;;;;;;32.49;32.33;99900.79;1773855;80;21824;-72
2022/07/22 10:25:54;;;;;;;4.42;1.50;;;;;;;32.54;31.29;99902.40;1773674;80;21048;-72
2022/07/22 10:28:31;;;;;;;8.18;1.65;;;;;;;32.05;32.38;99910.23;1774072;80;21043;-74
2022/07/22 10:31:22;;;;;;;5.80;2.17;;;;;;;31.32;33.69;99916.84;1773672;80;21087;-74
2022/07/22 10:33:55;;;;;;;2.27;1.20;;;;;;;31.14;33.34;99913.77;1773535;80;21051;-73
2022/07/22 10:36:35;;;;;;;3.75;1.30;;;;;;;31.31;32.56;99913.81;1745637;80;21342;-73
2022/07/22 10:39:09;;;;;;;4.22;1.32;;;;;;;31.26;32.78;99899.11;1773445;80;21794;-73
2022/07/22 10:41:39;;;;;;;1.87;1.32;;;;;;;31.08;33.71;99908.61;1773546;80;21079;-72
2022/07/22 10:44:06;;;;;;;1.90;1.40;;;;;;;31.12;33.86;99908.52;1773847;80;21118;-72
2022/07/22 10:46:58;;;;;;;5.37;1.37;;;;;;;31.19;34.16;99908.57;1773850;80;21110;-72
2022/07/22 10:49:25;;;;;;;4.08;1.50;;;;;;;31.43;33.60;99908.70;1773819;80;21272;-72
2022/07/22 10:52:16;;;;;;;3.50;1.15;;;;;;;31.66;32.66;99904.89;1773838;80;21127;-72
2022/07/22 10:55:20;;;;;;;6.35;1.20;;;;;;;31.75;32.01;99906.41;1791355;79;21488;-73
2022/07/22 10:57:50;;;;;;;6.67;1.70;;;;;;;31.91;32.01;99918.33;1728087;83;21053;-72
2022/07/22 11:00:17;;;;;;;1.20;1.00;;;;;;;31.85;31.76;99916.41;1729726;83;21074;-72
2022/07/22 11:02:45;;;;;;;2.45;1.05;;;;;;;31.61;31.89;99922.31;1729311;82;21061;-71
2022/07/22 11:05:12;;;;;;;1.98;1.10;;;;;;;31.48;31.97;99923.91;1729554;83;21844;-73
2022/07/22 11:07:46;;;;;;;5.62;0.95;;;;;;;31.26;32.18;99924.95;1729360;83;21537;-73
2022/07/22 11:10:15;;;;;;;2.50;1.05;;;;;;;31.22;32.64;99912.77;1729328;83;21062;-72
2022/07/22 11:12:43;;;;;;;1.27;1.00;;;;;;;31.40;32.73;99907.69;1770889;79;21086;-72
2022/07/22 11:15:10;;;;;;;6.05;1.30;;;;;;;31.45;32.47;99905.27;1729242;83;21074;-72
2022/07/22 11:17:39;;;;;;;6.00;1.22;;;;;;;31.61;33.01;99916.38;1729340;83;21253;-72
2022/07/22 11:20:09;;;;;;;3.12;1.20;;;;;;;31.80;31.07;99908.00;1794865;79;21625;-72
2022/07/22 11:22:37;;;;;;;2.35;0.90;;;;;;;31.68;31.60;99904.14;1794723;79;21759;-73
2022/07/22 11:25:07;;;;;;;3.50;1.10;;;;;;;31.66;32.20;99901.64;1794306;79;21038;-72
2022/07/22 11:27:33;;;;;;;2.52;1.00;;;;;;;31.62;32.18;99915.84;1794859;80;21070;-71
2022/07/22 11:30:03;;;;;;;2.87;0.82;;;;;;;31.65;32.33;99899.11;1794424;80;21127;-71
2022/07/22 11:32:31;;;;;;;4.78;0.72;;;;;;;31.70;31.42;99903.42;1794459;80;21030;-73
2022/07/22 11:34:59;;;;;;;1.65;1.05;;;;;;;31.90;30.37;99903.02;1724146;83;22198;-73
2022/07/22 11:37:27;;;;;;;5.28;1.00;;;;;;;32.10;30.13;99913.22;1794584;80;21058;-71
2022/07/22 11:40:06;;;;;;;1.87;1.00;;;;;;;32.06;30.22;99909.21;1794914;79;21042;-73